createdAt,value
2019-01-14T00:00:14.735Z,6.69
2019-01-14T00:01:14.725Z,6.68
2019-01-14T00:02:14.722Z,6.71
2019-01-14T00:03:14.703Z,6.68
2019-01-14T00:04:14.689Z,6.72
2019-01-14T00:05:14.681Z,6.72
2019-01-14T00:06:14.674Z,6.71
2019-01-14T00:07:14.677Z,6.69
2019-01-14T00:08:14.648Z,6.69
2019-01-14T00:09:14.636Z,6.72
2019-01-14T00:10:14.627Z,6.71
2019-01-14T00:11:14.615Z,6.69
2019-01-14T00:12:14.641Z,6.73
2019-01-14T00:13:14.593Z,6.65
2019-01-14T00:14:14.595Z,6.64
2019-01-14T00:15:14.576Z,6.71
2019-01-14T00:16:14.567Z,6.73
2019-01-14T00:17:14.558Z,6.69
2019-01-14T00:18:14.560Z,6.68
2019-01-14T00:19:14.531Z,6.69
2019-01-14T00:20:14.525Z,6.72
2019-01-14T00:21:14.509Z,6.73
2019-01-14T00:22:14.503Z,6.68
2019-01-14T00:23:14.502Z,6.65
2019-01-14T00:24:14.510Z,6.64
2019-01-14T00:25:14.467Z,6.68
2019-01-14T00:26:14.455Z,6.60
2019-01-14T00:27:14.447Z,6.57
2019-01-14T00:28:14.446Z,6.58
2019-01-14T00:29:14.429Z,6.57
2019-01-14T00:30:14.412Z,6.63
2019-01-14T00:31:14.403Z,6.53
2019-01-14T00:32:14.390Z,6.65
2019-01-14T00:33:14.391Z,6.58
2019-01-14T00:34:14.370Z,6.57
2019-01-14T00:35:14.372Z,6.53
2019-01-14T00:36:17.693Z,6.48
2019-01-14T00:37:14.342Z,6.43
2019-01-14T00:38:14.341Z,6.42
2019-01-14T00:39:14.316Z,6.45
2019-01-14T00:40:14.305Z,6.36
2019-01-14T00:41:14.297Z,6.39
2019-01-14T00:42:14.284Z,6.33
2019-01-14T00:43:14.317Z,6.32
2019-01-14T00:44:14.267Z,6.24
2019-01-14T00:45:14.255Z,6.28
2019-01-14T00:46:14.248Z,6.27
2019-01-14T00:47:14.234Z,6.27
2019-01-14T00:48:14.223Z,6.21
2019-01-14T00:49:14.227Z,6.17
2019-01-14T00:50:14.210Z,6.27
2019-01-14T00:51:14.193Z,6.17
2019-01-14T00:52:14.188Z,6.21
2019-01-14T00:53:14.180Z,6.21
2019-01-14T00:54:14.189Z,6.20
2019-01-14T00:55:14.153Z,6.17
2019-01-14T00:56:14.139Z,6.19
2019-01-14T00:57:14.128Z,6.14
2019-01-14T00:58:14.120Z,6.16
2019-01-14T00:59:14.116Z,6.14
2019-01-14T01:00:14.094Z,6.11
2019-01-14T01:01:14.084Z,6.10
2019-01-14T01:02:14.075Z,6.08
2019-01-14T01:03:14.067Z,6.11
2019-01-14T01:04:14.063Z,6.06
2019-01-14T01:05:14.042Z,6.10
2019-01-14T01:06:14.061Z,6.14
2019-01-14T01:07:14.025Z,6.11
2019-01-14T01:08:14.014Z,6.14
2019-01-14T01:09:14.016Z,6.10
2019-01-14T01:10:14.003Z,6.13
2019-01-14T01:11:13.980Z,6.11
2019-01-14T01:12:14.035Z,6.14
2019-01-14T01:13:14.050Z,6.08
2019-01-14T01:14:13.989Z,6.10
2019-01-14T01:15:13.956Z,6.13
2019-01-14T01:16:13.931Z,6.08
2019-01-14T01:17:13.922Z,6.10
2019-01-14T01:18:13.919Z,6.02
2019-01-14T01:19:13.933Z,6.08
2019-01-14T01:20:13.912Z,6.13
2019-01-14T01:21:13.875Z,6.11
2019-01-14T01:22:13.867Z,6.05
2019-01-14T01:23:13.853Z,6.05
2019-01-14T01:24:13.857Z,6.11
2019-01-14T01:25:23.148Z,6.14
2019-01-14T01:26:13.814Z,6.13
2019-01-14T01:27:13.803Z,6.14
2019-01-14T01:28:13.792Z,6.10
2019-01-14T01:29:13.783Z,6.02
2019-01-14T01:30:13.799Z,6.11
2019-01-14T01:31:13.761Z,6.03
2019-01-14T01:32:13.750Z,6.17
2019-01-14T01:33:13.737Z,6.10
2019-01-14T01:34:13.728Z,6.02
2019-01-14T01:35:13.729Z,6.02
2019-01-14T01:36:13.707Z,6.08
2019-01-14T01:37:15.276Z,6.08
2019-01-14T01:38:13.687Z,6.10
2019-01-14T01:39:13.675Z,6.05
2019-01-14T01:40:13.675Z,6.08
2019-01-14T01:41:13.653Z,6.06
2019-01-14T01:42:13.643Z,5.99
2019-01-14T01:43:13.632Z,5.99
2019-01-14T01:44:13.621Z,6.05
2019-01-14T01:45:13.625Z,5.99
2019-01-14T01:46:13.599Z,6.02
2019-01-14T01:47:13.592Z,6.02
2019-01-14T01:48:13.580Z,5.99
2019-01-14T01:49:13.569Z,6.01
2019-01-14T01:50:13.570Z,6.05
2019-01-14T01:51:13.548Z,6.05
2019-01-14T01:52:13.538Z,6.05
2019-01-14T01:53:13.532Z,6.01
2019-01-14T01:54:13.517Z,6.05
2019-01-14T01:55:13.519Z,6.03
2019-01-14T01:56:13.496Z,6.06
2019-01-14T01:57:14.989Z,6.05
2019-01-14T01:58:13.474Z,5.99
2019-01-14T01:59:13.464Z,6.02
2019-01-14T02:00:13.469Z,5.96
2019-01-14T02:01:13.439Z,6.02
2019-01-14T02:02:13.439Z,5.98
2019-01-14T02:03:13.419Z,6.03
2019-01-14T02:04:13.409Z,5.99
2019-01-14T02:05:13.416Z,6.03
2019-01-14T02:06:13.387Z,6.02
2019-01-14T02:07:13.376Z,5.99
2019-01-14T02:08:13.365Z,6.02
2019-01-14T02:09:13.357Z,5.98
2019-01-14T02:10:13.355Z,6.02
2019-01-14T02:11:13.333Z,5.96
2019-01-14T02:12:13.324Z,6.03
2019-01-14T02:13:13.312Z,5.96
2019-01-14T02:14:13.303Z,5.93
2019-01-14T02:15:13.302Z,5.92
2019-01-14T02:16:13.281Z,5.98
2019-01-14T02:17:13.269Z,6.01
2019-01-14T02:18:13.263Z,5.92
2019-01-14T02:19:13.251Z,5.90
2019-01-14T02:20:13.249Z,5.93
2019-01-14T02:21:13.228Z,6.02
2019-01-14T02:22:13.216Z,6.02
2019-01-14T02:23:13.206Z,6.03
2019-01-14T02:24:13.195Z,5.90
2019-01-14T02:25:13.199Z,5.96
2019-01-14T02:26:13.176Z,5.98
2019-01-14T02:27:13.164Z,5.95
2019-01-14T02:28:13.153Z,6.01
2019-01-14T02:29:13.143Z,5.93
2019-01-14T02:30:13.147Z,5.95
2019-01-14T02:31:13.120Z,5.98
2019-01-14T02:32:13.110Z,5.95
2019-01-14T02:33:13.100Z,5.88
2019-01-14T02:34:13.089Z,5.98
2019-01-14T02:35:13.090Z,5.90
2019-01-14T02:36:13.065Z,5.85
2019-01-14T02:37:13.065Z,5.95
2019-01-14T02:38:13.047Z,5.93
2019-01-14T02:39:13.032Z,5.92
2019-01-14T02:40:13.045Z,6.06
2019-01-14T02:41:13.012Z,5.90
2019-01-14T02:42:13.000Z,5.92
2019-01-14T02:43:12.992Z,5.87
2019-01-14T02:44:12.984Z,5.90
2019-01-14T02:45:12.970Z,5.85
2019-01-14T02:46:12.973Z,5.80
2019-01-14T02:47:12.954Z,5.87
2019-01-14T02:48:12.936Z,5.81
2019-01-14T02:49:12.927Z,5.78
2019-01-14T02:50:12.921Z,5.85
2019-01-14T02:51:12.928Z,5.84
2019-01-14T02:52:12.898Z,5.88
2019-01-14T02:53:12.885Z,5.88
2019-01-14T02:54:12.877Z,5.83
2019-01-14T02:55:12.961Z,5.84
2019-01-14T02:56:12.860Z,5.85
2019-01-14T02:57:12.845Z,5.87
2019-01-14T02:58:12.828Z,5.87
2019-01-14T02:59:12.819Z,5.87
2019-01-14T03:00:12.807Z,5.83
2019-01-14T03:01:12.809Z,5.75
2019-01-14T03:02:12.789Z,5.87
2019-01-14T03:03:12.778Z,5.84
2019-01-14T03:04:12.763Z,5.87
2019-01-14T03:05:12.753Z,5.73
2019-01-14T03:06:12.754Z,5.84
2019-01-14T03:07:12.734Z,5.83
2019-01-14T03:08:12.723Z,5.81
2019-01-14T03:09:12.712Z,5.84
2019-01-14T03:10:12.698Z,5.69
2019-01-14T03:11:12.698Z,5.87
2019-01-14T03:12:12.678Z,5.78
2019-01-14T03:13:12.669Z,5.87
2019-01-14T03:14:12.659Z,5.81
2019-01-14T03:15:12.645Z,5.78
2019-01-14T03:16:12.642Z,5.80
2019-01-14T03:17:12.623Z,5.77
2019-01-14T03:18:12.614Z,5.73
2019-01-14T03:19:12.608Z,5.73
2019-01-14T03:20:12.590Z,5.75
2019-01-14T03:21:12.592Z,5.78
2019-01-14T03:22:12.570Z,5.77
2019-01-14T03:23:12.559Z,5.77
2019-01-14T03:24:12.547Z,5.73
2019-01-14T03:25:12.540Z,5.74
2019-01-14T03:26:12.535Z,5.80
2019-01-14T03:27:12.515Z,5.73
2019-01-14T03:28:12.503Z,5.70
2019-01-14T03:29:12.493Z,5.69
2019-01-14T03:30:12.488Z,5.69
2019-01-14T03:31:12.485Z,5.78
2019-01-14T03:32:12.462Z,5.80
2019-01-14T03:33:12.453Z,5.70
2019-01-14T03:34:12.443Z,5.75
2019-01-14T03:35:12.428Z,5.70
2019-01-14T03:36:12.436Z,5.75
2019-01-14T03:37:12.406Z,5.73
2019-01-14T03:38:12.395Z,5.70
2019-01-14T03:39:12.382Z,5.69
2019-01-14T03:40:12.381Z,5.69
2019-01-14T03:41:12.376Z,5.69
2019-01-14T03:42:12.352Z,5.69
2019-01-14T03:43:12.342Z,5.69
2019-01-14T03:44:12.328Z,5.67
2019-01-14T03:45:12.338Z,5.69
2019-01-14T03:46:12.369Z,5.66
2019-01-14T03:47:12.295Z,5.60
2019-01-14T03:48:12.288Z,5.63
2019-01-14T03:49:12.275Z,5.65
2019-01-14T03:50:12.264Z,5.59
2019-01-14T03:51:12.282Z,5.62
2019-01-14T03:52:12.248Z,5.60
2019-01-14T03:53:12.234Z,5.66
2019-01-14T03:54:12.222Z,5.63
2019-01-14T03:55:12.210Z,5.66
2019-01-14T03:56:12.212Z,5.65
2019-01-14T03:57:12.189Z,5.55
2019-01-14T03:58:12.177Z,5.63
2019-01-14T03:59:12.177Z,5.65
2019-01-14T04:00:12.161Z,5.60
2019-01-14T04:01:12.148Z,5.59
2019-01-14T04:02:12.146Z,5.55
2019-01-14T04:03:12.123Z,5.55
2019-01-14T04:04:12.115Z,5.52
2019-01-14T04:05:12.101Z,5.55
2019-01-14T04:06:12.096Z,5.51
2019-01-14T04:07:13.835Z,5.58
2019-01-14T04:08:12.103Z,5.52
2019-01-14T04:09:12.059Z,5.58
2019-01-14T04:10:12.056Z,5.55
2019-01-14T04:11:12.036Z,5.58
2019-01-14T04:12:12.042Z,5.56
2019-01-14T04:13:12.018Z,5.60
2019-01-14T04:14:12.005Z,5.55
2019-01-14T04:15:11.996Z,5.56
2019-01-14T04:16:11.981Z,5.52
2019-01-14T04:17:11.983Z,5.55
2019-01-14T04:18:11.962Z,5.49
2019-01-14T04:19:11.950Z,5.51
2019-01-14T04:20:11.939Z,5.52
2019-01-14T04:21:11.927Z,5.55
2019-01-14T04:22:11.936Z,5.40
2019-01-14T04:23:11.910Z,5.42
2019-01-14T04:24:11.899Z,5.45
2019-01-14T04:25:11.887Z,5.42
2019-01-14T04:26:11.874Z,5.45
2019-01-14T04:27:11.877Z,5.42
2019-01-14T04:28:11.853Z,5.47
2019-01-14T04:29:11.856Z,5.45
2019-01-14T04:30:11.831Z,5.48
2019-01-14T04:31:11.823Z,5.45
2019-01-14T04:32:11.821Z,5.27
2019-01-14T04:33:11.797Z,5.33
2019-01-14T04:34:11.788Z,5.33
2019-01-14T04:35:11.779Z,5.29
2019-01-14T04:36:11.765Z,5.32
2019-01-14T04:37:11.765Z,5.29
2019-01-14T04:38:11.753Z,5.23
2019-01-14T04:39:11.734Z,5.24
2019-01-14T04:40:11.729Z,5.20
2019-01-14T04:41:11.713Z,5.19
2019-01-14T04:42:11.719Z,5.19
2019-01-14T04:43:11.690Z,5.19
2019-01-14T04:44:11.683Z,5.12
2019-01-14T04:45:11.669Z,5.06
2019-01-14T04:46:11.666Z,5.11
2019-01-14T04:47:11.658Z,4.97
2019-01-14T04:48:11.635Z,5.05
2019-01-14T04:49:11.630Z,5.01
2019-01-14T04:50:11.617Z,5.02
2019-01-14T04:51:11.606Z,5.02
2019-01-14T04:52:11.604Z,4.99
2019-01-14T04:53:11.595Z,4.87
2019-01-14T04:54:11.575Z,4.88
2019-01-14T04:55:11.564Z,4.94
2019-01-14T04:56:11.555Z,4.79
2019-01-14T04:57:11.540Z,4.84
2019-01-14T04:58:11.542Z,4.72
2019-01-14T04:59:11.516Z,4.72
2019-01-14T05:00:11.554Z,4.68
2019-01-14T05:01:11.504Z,4.71
2019-01-14T05:02:11.566Z,4.62
2019-01-14T05:03:11.487Z,4.65
2019-01-14T05:04:11.465Z,4.61
2019-01-14T05:05:11.455Z,4.56
2019-01-14T05:06:11.444Z,4.65
2019-01-14T05:07:11.435Z,4.65
2019-01-14T05:08:11.439Z,4.57
2019-01-14T05:09:11.414Z,4.59
2019-01-14T05:10:11.496Z,4.64
2019-01-14T05:11:11.395Z,4.54
2019-01-14T05:12:11.380Z,4.59
2019-01-14T05:13:11.391Z,4.61
2019-01-14T05:14:11.360Z,4.59
2019-01-14T05:15:11.345Z,4.56
2019-01-14T05:16:11.339Z,4.61
2019-01-14T05:17:11.329Z,4.46
2019-01-14T05:18:11.325Z,4.50
2019-01-14T05:19:11.305Z,4.59
2019-01-14T05:20:11.298Z,4.59
2019-01-14T05:21:11.285Z,4.59
2019-01-14T05:22:11.274Z,4.62
2019-01-14T05:23:11.280Z,4.50
2019-01-14T05:24:11.252Z,4.59
2019-01-14T05:25:11.244Z,4.62
2019-01-14T05:26:11.232Z,4.64
2019-01-14T05:27:11.221Z,4.56
2019-01-14T05:28:11.224Z,4.57
2019-01-14T05:29:11.198Z,4.56
2019-01-14T05:30:11.189Z,4.62
2019-01-14T05:31:11.175Z,4.57
2019-01-14T05:32:11.165Z,4.56
2019-01-14T05:33:11.171Z,4.49
2019-01-14T05:34:11.150Z,4.44
2019-01-14T05:35:11.136Z,4.50
2019-01-14T05:36:11.126Z,4.42
2019-01-14T05:37:11.114Z,4.46
2019-01-14T05:38:11.121Z,4.44
2019-01-14T05:39:11.093Z,4.39
2019-01-14T05:40:11.086Z,4.43
2019-01-14T05:41:11.074Z,4.35
2019-01-14T05:42:11.065Z,4.42
2019-01-14T05:43:11.063Z,4.43
2019-01-14T05:44:11.039Z,4.34
2019-01-14T05:45:11.032Z,4.39
2019-01-14T05:46:11.018Z,4.38
2019-01-14T05:47:11.009Z,4.35
2019-01-14T05:48:11.012Z,4.42
2019-01-14T05:49:10.987Z,4.36
2019-01-14T05:50:10.976Z,4.46
2019-01-14T05:51:10.969Z,4.39
2019-01-14T05:52:10.953Z,4.36
2019-01-14T05:53:10.979Z,4.35
2019-01-14T05:54:10.937Z,4.38
2019-01-14T05:55:10.925Z,4.34
2019-01-14T05:56:10.912Z,4.28
2019-01-14T05:57:10.915Z,4.32
2019-01-14T05:58:10.906Z,4.42
2019-01-14T05:59:10.885Z,4.36
2019-01-14T06:00:10.871Z,4.43
2019-01-14T06:01:10.859Z,4.36
2019-01-14T06:02:10.851Z,4.43
2019-01-14T06:03:10.854Z,4.38
2019-01-14T06:04:10.833Z,4.31
2019-01-14T06:05:10.819Z,4.42
2019-01-14T06:06:10.806Z,4.34
2019-01-14T06:07:10.799Z,4.38
2019-01-14T06:08:10.826Z,4.36
2019-01-14T06:09:10.776Z,4.35
2019-01-14T06:10:10.765Z,4.39
2019-01-14T06:11:10.754Z,4.29
2019-01-14T06:12:10.745Z,4.29
2019-01-14T06:13:10.741Z,4.39
2019-01-14T06:14:10.734Z,4.32
2019-01-14T06:15:10.714Z,4.34
2019-01-14T06:16:10.706Z,4.35
2019-01-14T06:17:10.688Z,4.36
2019-01-14T06:18:10.678Z,4.38
2019-01-14T06:19:10.677Z,4.31
2019-01-14T06:20:10.656Z,4.38
2019-01-14T06:21:10.650Z,4.31
2019-01-14T06:22:10.642Z,4.28
2019-01-14T06:23:10.629Z,4.32
2019-01-14T06:24:10.627Z,4.29
2019-01-14T06:25:10.605Z,4.21
2019-01-14T06:26:10.593Z,4.25
2019-01-14T06:27:10.599Z,4.25
2019-01-14T06:28:10.574Z,4.24
2019-01-14T06:29:10.574Z,4.18
2019-01-14T06:30:10.550Z,4.20
2019-01-14T06:31:10.542Z,4.25
2019-01-14T06:32:10.532Z,4.29
2019-01-14T06:33:10.522Z,4.21
2019-01-14T06:34:10.522Z,4.18
2019-01-14T06:35:10.498Z,4.25
2019-01-14T06:36:10.553Z,4.21
2019-01-14T06:37:10.479Z,4.21
2019-01-14T06:38:10.467Z,4.20
2019-01-14T06:39:10.466Z,4.21
2019-01-14T06:40:10.452Z,4.24
2019-01-14T06:41:10.433Z,4.24
2019-01-14T06:42:10.426Z,4.17
2019-01-14T06:43:10.413Z,4.14
2019-01-14T06:44:10.412Z,4.24
2019-01-14T06:45:10.392Z,4.24
2019-01-14T06:46:10.380Z,4.20
2019-01-14T06:47:10.370Z,4.25
2019-01-14T06:48:10.367Z,4.31
2019-01-14T06:49:10.368Z,4.29
2019-01-14T06:50:10.339Z,4.29
2019-01-14T06:51:10.330Z,4.18
2019-01-14T06:52:10.317Z,4.18
2019-01-14T06:53:10.307Z,4.29
2019-01-14T06:54:10.307Z,4.34
2019-01-14T06:55:10.286Z,4.34
2019-01-14T06:56:10.275Z,4.25
2019-01-14T06:57:10.263Z,4.34
2019-01-14T06:58:10.253Z,4.34
2019-01-14T06:59:10.252Z,4.34
2019-01-14T07:00:10.232Z,4.28
2019-01-14T07:01:10.222Z,4.35
2019-01-14T07:02:10.211Z,4.39
2019-01-14T07:03:10.198Z,4.50
2019-01-14T07:04:10.200Z,4.38
2019-01-14T07:05:10.180Z,4.34
2019-01-14T07:06:10.167Z,4.36
2019-01-14T07:07:10.157Z,4.36
2019-01-14T07:08:10.149Z,4.39
2019-01-14T07:09:10.150Z,4.43
2019-01-14T07:10:10.126Z,4.25
2019-01-14T07:11:10.114Z,4.29
2019-01-14T07:12:10.109Z,4.38
2019-01-14T07:13:10.105Z,4.38
2019-01-14T07:14:10.094Z,4.36
2019-01-14T07:15:10.070Z,4.32
2019-01-14T07:16:10.060Z,4.29
2019-01-14T07:17:10.050Z,4.42
2019-01-14T07:18:10.054Z,4.29
2019-01-14T07:19:10.041Z,4.21
2019-01-14T07:20:10.017Z,4.24
2019-01-14T07:21:10.021Z,4.21
2019-01-14T07:22:09.999Z,4.10
2019-01-14T07:23:09.986Z,4.21
2019-01-14T07:24:09.991Z,4.24
2019-01-14T07:25:09.971Z,4.17
2019-01-14T07:26:09.954Z,4.17
2019-01-14T07:27:09.943Z,4.18
2019-01-14T07:28:09.933Z,4.18
2019-01-14T07:29:09.958Z,4.21
2019-01-14T07:30:09.913Z,4.24
2019-01-14T07:31:09.900Z,4.25
2019-01-14T07:32:09.891Z,4.17
2019-01-14T07:33:09.879Z,4.21
2019-01-14T07:34:09.868Z,4.17
2019-01-14T07:35:09.873Z,4.18
2019-01-14T07:36:09.878Z,4.17
2019-01-14T07:37:09.836Z,4.26
2019-01-14T07:38:09.828Z,4.18
2019-01-14T07:39:09.817Z,4.20
2019-01-14T07:40:09.815Z,4.11
2019-01-14T07:41:09.793Z,4.18
2019-01-14T07:42:09.958Z,4.14
2019-01-14T07:43:09.773Z,4.20
2019-01-14T07:44:09.760Z,4.20
2019-01-14T07:45:09.762Z,4.20
2019-01-14T07:46:09.742Z,4.21
2019-01-14T07:47:09.732Z,4.26
2019-01-14T07:48:09.724Z,4.21
2019-01-14T07:49:09.714Z,4.21
2019-01-14T07:50:09.708Z,4.26
2019-01-14T07:51:09.688Z,4.16
2019-01-14T07:52:09.677Z,4.24
2019-01-14T07:53:09.671Z,4.24
2019-01-14T07:54:09.663Z,4.18
2019-01-14T07:55:09.655Z,4.21
2019-01-14T07:56:09.664Z,4.29
2019-01-14T07:57:09.620Z,4.29
2019-01-14T07:58:09.612Z,4.26
2019-01-14T07:59:09.627Z,4.31
2019-01-14T08:00:09.626Z,4.36
2019-01-14T08:01:09.592Z,4.31
2019-01-14T08:02:09.587Z,4.36
2019-01-14T08:03:09.561Z,4.29
2019-01-14T08:04:09.545Z,4.26
2019-01-14T08:05:09.560Z,4.35
2019-01-14T08:06:09.526Z,4.44
2019-01-14T08:07:09.520Z,4.34
2019-01-14T08:08:14.001Z,4.31
2019-01-14T08:09:09.527Z,4.32
2019-01-14T08:10:09.495Z,4.38
2019-01-14T08:11:09.471Z,4.31
2019-01-14T08:12:09.464Z,4.31
2019-01-14T08:13:09.449Z,4.31
2019-01-14T08:14:09.442Z,4.29
2019-01-14T08:15:09.453Z,4.32
2019-01-14T08:16:09.419Z,4.38
2019-01-14T08:17:09.423Z,4.39
2019-01-14T08:18:09.406Z,4.38
2019-01-14T08:19:09.387Z,4.26
2019-01-14T08:20:09.408Z,4.29
2019-01-14T08:21:09.367Z,4.26
2019-01-14T08:22:09.356Z,4.32
2019-01-14T08:23:09.347Z,4.29
2019-01-14T08:24:09.334Z,4.35
2019-01-14T08:25:09.334Z,4.34
2019-01-14T08:26:09.318Z,4.39
2019-01-14T08:27:09.305Z,4.28
2019-01-14T08:28:09.294Z,4.36
2019-01-14T08:29:09.352Z,4.34
2019-01-14T08:30:09.284Z,4.46
2019-01-14T08:31:09.262Z,4.38
2019-01-14T08:32:09.251Z,4.36
2019-01-14T08:33:09.241Z,4.44
2019-01-14T08:34:09.227Z,4.34
2019-01-14T08:35:09.235Z,4.35
2019-01-14T08:36:09.208Z,4.43
2019-01-14T08:37:09.199Z,4.46
2019-01-14T08:38:09.184Z,4.51
2019-01-14T08:39:09.181Z,4.43
2019-01-14T08:40:09.176Z,4.47
2019-01-14T08:41:09.217Z,4.64
2019-01-14T08:42:09.142Z,4.62
2019-01-14T08:43:09.136Z,4.65
2019-01-14T08:44:09.120Z,4.74
2019-01-14T08:45:09.151Z,4.84
2019-01-14T08:46:09.102Z,4.86
2019-01-14T08:47:09.090Z,4.87
2019-01-14T08:48:09.079Z,4.91
2019-01-14T08:49:09.064Z,4.90
2019-01-14T08:50:09.056Z,4.90
2019-01-14T08:51:09.054Z,4.90
2019-01-14T08:52:09.036Z,4.90
2019-01-14T08:53:09.025Z,4.91
2019-01-14T08:54:09.049Z,4.84
2019-01-14T08:55:09.000Z,4.90
2019-01-14T08:56:09.002Z,5.01
2019-01-14T08:57:08.990Z,5.11
2019-01-14T08:58:08.974Z,5.24
2019-01-14T08:59:08.963Z,5.27
2019-01-14T09:00:09.016Z,5.24
2019-01-14T09:01:09.038Z,5.27
2019-01-14T09:02:08.941Z,5.19
2019-01-14T09:03:08.923Z,5.17
2019-01-14T09:04:08.907Z,5.17
2019-01-14T09:05:08.895Z,5.30
2019-01-14T09:06:08.915Z,5.24
2019-01-14T09:07:08.875Z,5.29
2019-01-14T09:08:08.869Z,5.33
2019-01-14T09:09:08.851Z,5.42
2019-01-14T09:10:09.532Z,5.49
2019-01-14T09:11:08.847Z,5.45
2019-01-14T09:12:08.868Z,5.73
2019-01-14T09:13:08.849Z,5.77
2019-01-14T09:14:08.838Z,5.92
2019-01-14T09:15:08.790Z,6.06
2019-01-14T09:16:08.852Z,6.33
2019-01-14T09:17:08.770Z,6.53
2019-01-14T09:18:08.754Z,6.65
2019-01-14T09:19:08.752Z,6.86
2019-01-14T09:20:08.735Z,6.99
2019-01-14T09:21:08.741Z,7.11
2019-01-14T09:22:08.714Z,7.18
2019-01-14T09:23:08.701Z,7.26
2019-01-14T09:24:08.691Z,7.41
2019-01-14T09:25:08.681Z,7.50
2019-01-14T09:26:08.683Z,7.63
2019-01-14T09:27:08.686Z,7.73
2019-01-14T09:28:08.650Z,7.88
2019-01-14T09:29:08.640Z,8.06
2019-01-14T09:30:08.632Z,8.20
2019-01-14T09:31:08.634Z,8.28
2019-01-14T09:32:08.604Z,8.32
2019-01-14T09:33:08.594Z,8.45
2019-01-14T09:34:08.583Z,8.50
2019-01-14T09:35:08.589Z,8.61
2019-01-14T09:36:08.573Z,8.60
2019-01-14T09:37:08.554Z,8.55
2019-01-14T09:38:08.805Z,8.47
2019-01-14T09:39:09.214Z,8.47
2019-01-14T09:40:09.211Z,8.46
2019-01-14T09:41:10.202Z,8.40
2019-01-14T09:42:09.212Z,8.31
2019-01-14T09:43:10.203Z,8.37
2019-01-14T09:44:08.483Z,8.42
2019-01-14T09:45:08.466Z,8.61
2019-01-14T09:46:08.737Z,8.65
2019-01-14T09:47:08.444Z,8.68
2019-01-14T09:48:08.435Z,8.61
2019-01-14T09:49:08.424Z,8.78
2019-01-14T09:50:08.415Z,8.89
2019-01-14T09:51:08.411Z,8.76
2019-01-14T09:52:08.392Z,8.40
2019-01-14T09:53:08.387Z,8.57
2019-01-14T09:54:08.366Z,8.73
2019-01-14T09:55:08.355Z,8.76
2019-01-14T09:56:08.356Z,8.93
2019-01-14T09:57:08.336Z,8.96
2019-01-14T09:58:08.325Z,8.98
2019-01-14T09:59:08.313Z,9.10
2019-01-14T10:00:15.221Z,9.01
2019-01-14T10:01:08.322Z,8.86
2019-01-14T10:02:08.283Z,8.98
2019-01-14T10:03:08.271Z,9.04
2019-01-14T10:04:08.260Z,9.08
2019-01-14T10:05:08.250Z,9.22
2019-01-14T10:06:08.237Z,9.27
2019-01-14T10:07:08.241Z,9.49
2019-01-14T10:08:08.216Z,9.27
2019-01-14T10:09:08.206Z,9.50
2019-01-14T10:10:08.198Z,9.38
2019-01-14T10:11:08.185Z,9.65
2019-01-14T10:12:08.191Z,9.52
2019-01-14T10:13:08.162Z,9.65
2019-01-14T10:14:08.152Z,9.68
2019-01-14T10:15:08.142Z,9.85
2019-01-14T10:16:08.131Z,9.92
2019-01-14T10:17:08.132Z,10.06
2019-01-14T10:18:08.107Z,9.89
2019-01-14T10:19:08.104Z,9.91
2019-01-14T10:20:08.088Z,9.77
2019-01-14T10:21:08.076Z,9.85
2019-01-14T10:22:08.120Z,9.95
2019-01-14T10:23:08.058Z,10.06
2019-01-14T10:24:08.046Z,10.04
2019-01-14T10:25:08.033Z,10.01
2019-01-14T10:26:08.024Z,10.01
2019-01-14T10:27:08.036Z,10.22
2019-01-14T10:28:08.000Z,10.46
2019-01-14T10:29:07.992Z,10.54
2019-01-14T10:30:07.981Z,10.66
2019-01-14T10:31:07.969Z,10.58
2019-01-14T10:32:07.974Z,10.44
2019-01-14T10:33:08.070Z,10.17
2019-01-14T10:34:07.996Z,10.01
2019-01-14T10:35:07.926Z,9.96
2019-01-14T10:36:07.917Z,10.10
2019-01-14T10:37:07.914Z,9.83
2019-01-14T10:38:07.897Z,9.83
2019-01-14T10:39:07.882Z,10.29
2019-01-14T10:40:07.884Z,10.36
2019-01-14T10:41:07.881Z,10.51
2019-01-14T10:42:07.861Z,10.66
2019-01-14T10:43:07.839Z,10.69
2019-01-14T10:44:07.828Z,10.76
2019-01-14T10:45:07.818Z,11.03
2019-01-14T10:46:07.807Z,11.03
2019-01-14T10:47:07.810Z,10.91
2019-01-14T10:48:07.786Z,11.08
2019-01-14T10:49:07.774Z,10.86
2019-01-14T10:50:07.769Z,10.69
2019-01-14T10:51:07.753Z,10.34
2019-01-14T10:52:07.752Z,10.01
2019-01-14T10:53:07.730Z,10.18
2019-01-14T10:54:07.720Z,10.22
2019-01-14T10:55:12.297Z,10.14
2019-01-14T10:56:08.696Z,10.28
2019-01-14T10:57:07.805Z,10.17
2019-01-14T10:58:07.677Z,10.28
2019-01-14T10:59:07.665Z,10.20
2019-01-14T11:00:07.656Z,9.85
2019-01-14T11:01:07.647Z,9.77
2019-01-14T11:02:07.643Z,9.89
2019-01-14T11:03:07.625Z,10.01
2019-01-14T11:04:07.612Z,10.06
2019-01-14T11:05:07.600Z,10.01
2019-01-14T11:06:07.591Z,9.99
2019-01-14T11:07:07.594Z,10.02
2019-01-14T11:08:07.569Z,9.85
2019-01-14T11:09:07.561Z,9.85
2019-01-14T11:10:07.548Z,9.89
2019-01-14T11:11:07.535Z,9.88
2019-01-14T11:12:07.536Z,9.96
2019-01-14T11:13:07.564Z,10.25
2019-01-14T11:14:07.502Z,10.26
2019-01-14T11:15:07.493Z,10.13
2019-01-14T11:16:07.485Z,9.91
2019-01-14T11:17:07.499Z,9.88
2019-01-14T11:18:07.460Z,9.75
2019-01-14T11:19:07.456Z,9.71
2019-01-14T11:20:07.437Z,9.80
2019-01-14T11:21:07.432Z,10.06
2019-01-14T11:22:07.418Z,10.06
2019-01-14T11:23:07.423Z,10.06
2019-01-14T11:24:07.401Z,10.16
2019-01-14T11:25:07.389Z,10.16
2019-01-14T11:26:07.375Z,10.51
2019-01-14T11:27:07.362Z,11.11
2019-01-14T11:28:07.363Z,10.81
2019-01-14T11:29:07.343Z,10.75
2019-01-14T11:30:07.333Z,10.54
2019-01-14T11:31:07.325Z,10.28
2019-01-14T11:32:07.783Z,10.34
2019-01-14T11:33:07.312Z,10.25
2019-01-14T11:34:07.289Z,10.13
2019-01-14T11:35:07.277Z,10.13
2019-01-14T11:36:07.267Z,10.01
2019-01-14T11:37:07.257Z,10.52
2019-01-14T11:38:07.258Z,10.73
2019-01-14T11:39:07.233Z,10.52
2019-01-14T11:40:07.224Z,10.02
2019-01-14T11:41:07.215Z,9.74
2019-01-14T11:42:07.212Z,9.59
2019-01-14T11:43:07.204Z,9.55
2019-01-14T11:44:07.180Z,9.48
2019-01-14T11:45:07.175Z,9.34
2019-01-14T11:46:07.186Z,9.38
2019-01-14T11:47:07.155Z,9.23
2019-01-14T11:48:07.153Z,9.10
2019-01-14T11:49:07.125Z,9.00
2019-01-14T11:50:07.115Z,8.76
2019-01-14T11:51:07.105Z,8.68
2019-01-14T11:52:07.095Z,8.60
2019-01-14T11:53:07.097Z,8.46
2019-01-14T11:54:07.073Z,8.34
2019-01-14T11:55:07.059Z,8.24
2019-01-14T11:56:07.057Z,8.25
2019-01-14T11:57:07.880Z,8.09
2019-01-14T11:58:07.042Z,8.06
2019-01-14T11:59:07.027Z,8.02
2019-01-14T12:00:07.010Z,8.06
2019-01-14T12:01:06.996Z,8.02
2019-01-14T12:02:06.988Z,7.89
2019-01-14T12:03:08.543Z,7.95
2019-01-14T12:04:06.969Z,7.92
2019-01-14T12:05:06.956Z,7.89
2019-01-14T12:06:06.943Z,7.82
2019-01-14T12:07:06.932Z,7.74
2019-01-14T12:08:06.936Z,7.50
2019-01-14T12:09:12.220Z,7.39
2019-01-14T12:10:07.898Z,7.30
2019-01-14T12:11:06.888Z,7.32
2019-01-14T12:12:06.878Z,7.19
2019-01-14T12:13:06.877Z,7.18
2019-01-14T12:14:06.857Z,7.19
2019-01-14T12:15:06.847Z,7.24
2019-01-14T12:16:06.837Z,7.23
2019-01-14T12:17:06.825Z,7.15
2019-01-14T12:18:06.825Z,7.19
2019-01-14T12:19:06.802Z,7.21
2019-01-14T12:20:06.790Z,7.16
2019-01-14T12:21:06.786Z,7.19
2019-01-14T12:22:06.770Z,7.19
2019-01-14T12:23:06.785Z,7.21
2019-01-14T12:24:06.753Z,7.14
2019-01-14T12:25:06.738Z,7.14
2019-01-14T12:26:06.726Z,7.11
2019-01-14T12:27:06.723Z,7.08
2019-01-14T12:28:06.721Z,7.00
2019-01-14T12:29:06.696Z,6.93
2019-01-14T12:30:06.691Z,6.89
2019-01-14T12:31:06.674Z,6.78
2019-01-14T12:32:06.664Z,6.75
2019-01-14T12:33:06.668Z,6.69
2019-01-14T12:34:06.640Z,6.61
2019-01-14T12:35:06.632Z,6.57
2019-01-14T12:36:06.622Z,6.65
2019-01-14T12:37:06.612Z,6.61
2019-01-14T12:38:06.641Z,6.55
2019-01-14T12:39:06.614Z,6.51
2019-01-14T12:40:06.578Z,6.42
2019-01-14T12:41:06.567Z,6.40
2019-01-14T12:42:06.555Z,6.43
2019-01-14T12:43:06.544Z,6.42
2019-01-14T12:44:06.547Z,6.43
2019-01-14T12:45:06.526Z,6.33
2019-01-14T12:46:06.515Z,6.40
2019-01-14T12:47:06.503Z,6.35
2019-01-14T12:48:06.493Z,6.35
2019-01-14T12:49:06.493Z,6.32
2019-01-14T12:50:06.483Z,6.33
2019-01-14T12:51:06.460Z,6.27
2019-01-14T12:52:06.451Z,6.27
2019-01-14T12:53:06.438Z,6.28
2019-01-14T12:54:06.439Z,6.39
2019-01-14T12:55:06.419Z,6.39
2019-01-14T12:56:06.412Z,6.45
2019-01-14T12:57:06.396Z,6.39
2019-01-14T12:58:06.385Z,6.39
2019-01-14T12:59:06.388Z,6.36
2019-01-14T13:00:06.363Z,6.39
2019-01-14T13:01:06.358Z,6.32
2019-01-14T13:02:06.344Z,6.30
2019-01-14T13:03:06.343Z,6.24
2019-01-14T13:04:06.357Z,6.32
2019-01-14T13:05:06.310Z,6.20
2019-01-14T13:06:06.299Z,6.13
2019-01-14T13:07:06.289Z,6.19
2019-01-14T13:08:06.276Z,6.24
2019-01-14T13:09:06.277Z,6.54
2019-01-14T13:10:06.271Z,6.58
2019-01-14T13:11:06.245Z,6.91
2019-01-14T13:12:06.234Z,7.66
2019-01-14T13:13:06.229Z,7.88
2019-01-14T13:14:06.233Z,7.74
2019-01-14T13:15:06.202Z,7.79
2019-01-14T13:16:06.192Z,8.31